Air Navigation Services of Czech Republic
Airport: LKNA Updated:  25.05.2018 02:01:06  UTC
 METAR LKNA 25.05. 02:00 ...
METAR LKNA 250200Z 01007KT CAVOK 15/11 Q1018 RMK BLU=
 TAF LKNA 24.05. 23:00 ...
TAF LKNA 242300Z 2500/2600 05008KT CAVOK      TEMPO 2500/2508 8000 SHRA BKN030      BECMG 2506/2508 15010KT      TEMPO 2510/2516 8000 SHRA SCT030TCU=